Time;durP1;ratioP1;P1;durP2;ratioP2;P2;SDS_P1;SDS_P2;PMS_P1;PMS_P2;Temp;Humidity;BMP_temperature;BMP_pressure;BME280_temperature;BME280_humidity;BME280_pressure;Samples;Min_cycle;Max_cycle;Signal;HPM_P1;HPM_P2
2023/09/15 00:01:21;;;;;;;0.10;0.10;;;;;;;13.07;100.00;99467.13;5091729;28;20257;-54
2023/09/15 00:04:11;;;;;;;0.10;0.10;;;;;;;13.06;100.00;99473.41;5093089;28;20265;-54
2023/09/15 00:06:58;;;;;;;0.10;0.10;;;;;;;13.05;100.00;99471.69;5093756;28;20199;-54
2023/09/15 00:09:45;;;;;;;0.10;0.10;;;;;;;12.95;100.00;99474.16;5093774;28;20264;-53
2023/09/15 00:12:34;;;;;;;0.10;0.10;;;;;;;12.80;100.00;99477.84;5093802;28;20218;-54
2023/09/15 00:15:22;;;;;;;0.10;0.10;;;;;;;12.82;100.00;99474.09;5093628;28;20221;-54
2023/09/15 00:18:09;;;;;;;0.10;0.10;;;;;;;12.94;100.00;99468.94;5092575;28;20190;-54
2023/09/15 00:20:56;;;;;;;0.10;0.10;;;;;;;13.22;100.00;99479.41;5093630;28;20286;-54
2023/09/15 00:23:43;;;;;;;0.10;0.10;;;;;;;13.29;100.00;99475.34;5093124;28;20269;-54
2023/09/15 00:26:30;;;;;;;0.10;0.10;;;;;;;13.10;100.00;99470.41;5093727;28;20510;-54
2023/09/15 00:29:19;;;;;;;0.10;0.10;;;;;;;13.31;100.00;99465.44;5093588;28;20207;-54
2023/09/15 00:32:07;;;;;;;0.10;0.10;;;;;;;13.20;100.00;99464.47;5092019;28;20191;-54
2023/09/15 00:34:53;;;;;;;0.10;0.10;;;;;;;13.39;100.00;99459.56;5093410;28;20194;-54
2023/09/15 00:37:40;;;;;;;0.10;0.10;;;;;;;13.27;100.00;99457.78;5093442;28;20329;-54
2023/09/15 00:40:28;;;;;;;0.10;0.10;;;;;;;13.43;100.00;99456.59;5091582;28;20198;-54
2023/09/15 00:43:15;;;;;;;0.10;0.10;;;;;;;13.43;100.00;99456.59;5112093;28;20321;-54
2023/09/15 00:46:04;;;;;;;0.10;0.10;;;;;;;13.31;100.00;99460.09;5112367;28;20225;-54
2023/09/15 00:48:51;;;;;;;0.10;0.10;;;;;;;12.96;100.00;99456.38;5113376;28;20194;-54
2023/09/15 00:51:39;;;;;;;0.10;0.10;;;;;;;12.84;100.00;99466.06;5113275;28;20222;-54
2023/09/15 00:54:26;;;;;;;0.10;0.10;;;;;;;12.68;100.00;99468.03;5112652;28;20186;-54
2023/09/15 00:57:12;;;;;;;0.10;0.10;;;;;;;12.70;100.00;99460.81;5113349;28;20202;-54
2023/09/15 00:59:59;;;;;;;0.10;0.10;;;;;;;13.22;100.00;99466.09;5113358;28;20198;-54
2023/09/15 01:02:48;;;;;;;0.10;0.10;;;;;;;12.93;100.00;99461.88;5111832;28;20313;-54
2023/09/15 01:05:36;;;;;;;0.10;0.10;;;;;;;12.94;100.00;99453.84;5113389;28;20256;-54
2023/09/15 01:08:23;;;;;;;0.10;0.10;;;;;;;13.05;100.00;99453.09;5113313;28;20213;-54
2023/09/15 01:11:10;;;;;;;0.10;0.10;;;;;;;12.93;100.00;99449.44;5113116;28;20248;-54
2023/09/15 01:13:57;;;;;;;0.10;0.10;;;;;;;12.81;100.00;99451.16;5113381;28;20197;-54
2023/09/15 01:16:50;;;;;;;0.10;0.10;;;;;;;12.68;100.00;99452.09;5112008;28;20240;-54
2023/09/15 01:19:56;;;;;;;0.10;0.10;;;;;;;12.47;100.00;99462.38;5113595;28;20189;-54
2023/09/15 01:23:11;;;;;;;0.10;0.10;;;;;;;12.61;100.00;99457.81;5104991;28;20279;-54
2023/09/15 01:26:23;;;;;;;0.10;0.10;;;;;;;12.63;100.00;99457.72;5112176;28;20203;-54
2023/09/15 01:29:39;;;;;;;0.10;0.10;;;;;;;12.73;100.00;99461.44;5113198;28;20672;-54
2023/09/15 01:32:26;;;;;;;0.10;0.10;;;;;;;12.69;100.00;99453.81;5110852;28;20190;-54
2023/09/15 01:35:13;;;;;;;0.10;0.10;;;;;;;12.38;100.00;99455.88;5113121;28;20190;-54
2023/09/15 01:38:00;;;;;;;0.10;0.10;;;;;;;12.63;100.00;99456.84;5113105;28;20255;-54
2023/09/15 01:40:47;;;;;;;0.10;0.10;;;;;;;12.41;100.00;99454.81;5112947;28;20668;-54
2023/09/15 01:43:34;;;;;;;0.10;0.10;;;;;;;12.22;100.00;99456.03;5112120;28;20205;-54
2023/09/15 01:46:23;;;;;;;0.10;0.10;;;;;;;12.25;100.00;99455.81;5111904;28;20190;-54
2023/09/15 01:49:11;;;;;;;0.10;0.10;;;;;;;12.41;100.00;99458.31;5112834;28;20303;-54
2023/09/15 01:52:00;;;;;;;0.10;0.10;;;;;;;12.03;100.00;99458.19;5111696;28;20222;-54
2023/09/15 01:54:48;;;;;;;0.10;0.10;;;;;;;12.02;100.00;99457.31;5113050;28;20309;-54
2023/09/15 01:57:35;;;;;;;0.03;0.03;;;;;;;11.98;100.00;99466.47;5112823;28;20744;-54
2023/09/15 02:00:22;;;;;;;0.10;0.10;;;;;;;12.25;100.00;99454.97;5111991;28;20288;-54
2023/09/15 02:03:10;;;;;;;0.10;0.10;;;;;;;12.42;100.00;99459.16;5111495;28;20202;-54
2023/09/15 02:06:00;;;;;;;0.10;0.10;;;;;;;12.33;100.00;99450.84;5111638;28;20190;-54
2023/09/15 02:08:47;;;;;;;0.10;0.10;;;;;;;12.33;100.00;99452.66;5112871;28;20198;-54
2023/09/15 02:11:34;;;;;;;0.10;0.10;;;;;;;12.26;100.00;99443.41;5111519;28;20222;-54
2023/09/15 02:14:21;;;;;;;0.10;0.10;;;;;;;12.16;100.00;99444.94;5111641;28;20194;-54
2023/09/15 02:17:11;;;;;;;0.10;0.10;;;;;;;12.06;100.00;99449.16;5114137;28;20198;-54
2023/09/15 02:20:01;;;;;;;0.10;0.10;;;;;;;12.08;100.00;99453.44;5116337;28;20190;-54
2023/09/15 02:22:50;;;;;;;0.10;0.10;;;;;;;12.09;100.00;99451.63;5116054;28;20221;-54
2023/09/15 02:25:37;;;;;;;0.10;0.10;;;;;;;11.77;100.00;99441.25;5116434;28;20193;-54
2023/09/15 02:28:24;;;;;;;0.10;0.10;;;;;;;12.12;100.00;99451.41;5115325;28;20190;-54
2023/09/15 02:31:11;;;;;;;0.10;0.10;;;;;;;11.98;100.00;99455.00;5114761;28;20222;-54
2023/09/15 02:33:59;;;;;;;0.10;0.10;;;;;;;11.91;100.00;99449.22;5116134;28;20323;-54
2023/09/15 02:36:48;;;;;;;0.10;0.10;;;;;;;11.74;100.00;99449.41;5116039;28;20198;-54
2023/09/15 02:39:35;;;;;;;0.10;0.10;;;;;;;11.80;100.00;99448.22;5116067;28;20217;-53
2023/09/15 02:42:22;;;;;;;0.10;0.10;;;;;;;11.71;100.00;99445.16;5116038;28;20190;-54
2023/09/15 02:45:10;;;;;;;0.10;0.10;;;;;;;11.86;100.00;99442.50;5114819;28;20190;-54
2023/09/15 02:47:57;;;;;;;0.10;0.10;;;;;;;11.95;100.00;99449.84;5114408;28;20223;-54
2023/09/15 02:50:45;;;;;;;0.10;0.10;;;;;;;12.07;100.00;99446.44;5114754;28;20329;-53
2023/09/15 02:53:33;;;;;;;0.10;0.10;;;;;;;11.96;100.00;99449.75;5114828;28;20214;-54
2023/09/15 02:56:22;;;;;;;0.10;0.10;;;;;;;12.04;100.00;99446.59;5114707;28;20194;-53
2023/09/15 02:59:10;;;;;;;0.10;0.10;;;;;;;11.95;100.00;99445.41;5114591;28;20194;-54
2023/09/15 03:01:58;;;;;;;0.20;0.20;;;;;;;12.11;100.00;99436.44;5113344;28;20197;-54
2023/09/15 03:04:46;;;;;;;0.10;0.10;;;;;;;12.27;100.00;99437.13;5114558;28;20689;-54
2023/09/15 03:07:36;;;;;;;0.10;0.10;;;;;;;12.13;100.00;99431.88;5115559;28;20206;-54
2023/09/15 03:10:25;;;;;;;0.10;0.10;;;;;;;12.30;100.00;99432.47;5114401;28;20198;-54
2023/09/15 03:13:11;;;;;;;0.10;0.10;;;;;;;12.13;100.00;99429.22;5114395;28;20201;-54
2023/09/15 03:16:08;;;;;;;0.10;0.10;;;;;;;12.10;100.00;99426.78;5112981;28;20198;-53
2023/09/15 03:18:56;;;;;;;0.10;0.10;;;;;;;11.94;100.00;99429.56;5114088;28;20293;-54
2023/09/15 03:21:43;;;;;;;0.10;0.10;;;;;;;12.18;100.00;99432.44;5114147;28;20282;-54
2023/09/15 03:24:31;;;;;;;0.10;0.10;;;;;;;11.92;100.00;99420.88;5113939;28;20202;-54
2023/09/15 03:27:19;;;;;;;0.10;0.10;;;;;;;11.89;100.00;99427.22;5113967;28;20205;-54
2023/09/15 03:30:08;;;;;;;0.10;0.10;;;;;;;11.97;100.00;99427.59;5113983;28;20206;-54
2023/09/15 03:32:55;;;;;;;0.10;0.10;;;;;;;11.76;100.00;99421.81;5112293;28;20782;-53
2023/09/15 03:35:42;;;;;;;0.10;0.10;;;;;;;11.72;100.00;99424.78;5114023;28;20205;-54
2023/09/15 03:38:28;;;;;;;0.10;0.10;;;;;;;11.55;100.00;99417.91;5115023;28;20236;-54
2023/09/15 03:41:16;;;;;;;0.10;0.10;;;;;;;11.72;100.00;99427.44;5113800;28;20186;-54
2023/09/15 03:44:05;;;;;;;0.10;0.10;;;;;;;11.83;100.00;99424.13;5114518;28;20197;-54
2023/09/15 03:46:52;;;;;;;0.10;0.10;;;;;;;11.55;100.00;99419.69;5113578;28;20202;-54
2023/09/15 03:49:39;;;;;;;0.10;0.10;;;;;;;11.52;100.00;99422.56;5113739;28;20259;-54
2023/09/15 03:52:26;;;;;;;0.10;0.10;;;;;;;11.69;100.00;99419.69;5113319;28;20214;-54
2023/09/15 03:55:13;;;;;;;0.10;0.10;;;;;;;11.65;100.00;99420.81;5114561;28;20198;-53
2023/09/15 03:58:00;;;;;;;0.10;0.10;;;;;;;11.54;100.00;99424.16;5114515;28;20255;-54
2023/09/15 04:00:49;;;;;;;0.10;0.10;;;;;;;11.68;100.00;99420.63;5113273;28;20263;-54
2023/09/15 04:03:35;;;;;;;0.10;0.10;;;;;;;11.62;100.00;99416.56;5114480;28;20194;-54
2023/09/15 04:06:22;;;;;;;0.10;0.10;;;;;;;11.92;100.00;99424.38;5114335;28;20199;-54
2023/09/15 04:09:10;;;;;;;0.10;0.10;;;;;;;11.96;100.00;99417.03;5113051;28;20284;-54
2023/09/15 04:11:57;;;;;;;0.10;0.10;;;;;;;11.83;100.00;99419.66;5113044;28;20214;-54
2023/09/15 04:14:44;;;;;;;0.10;0.10;;;;;;;11.59;100.00;99423.88;5114130;28;20688;-54
2023/09/15 04:17:32;;;;;;;0.10;0.10;;;;;;;-144.59;100.00;99423.88;5111600;28;20237;-54
2023/09/15 04:20:20;;;;;;;0.10;0.10;;;;;;;11.71;100.00;99426.59;5114086;28;20194;-54
2023/09/15 04:23:25;;;;;;;0.10;0.10;;;;;;;11.72;100.00;99417.66;5112769;28;20233;-54
2023/09/15 04:26:12;;;;;;;0.10;0.10;;;;;;;11.22;100.00;99425.34;5113010;28;20197;-53
2023/09/15 04:28:59;;;;;;;0.10;0.10;;;;;;;11.10;100.00;99424.31;5113835;28;20617;-54
2023/09/15 04:31:46;;;;;;;0.10;0.10;;;;;;;11.11;100.00;99426.00;5111484;28;20416;-54
2023/09/15 04:34:35;;;;;;;0.10;0.10;;;;;;;11.00;100.00;99431.97;5112916;28;20676;-54
2023/09/15 04:37:22;;;;;;;0.10;0.10;;;;;;;11.23;100.00;99429.69;5112750;28;20225;-54
2023/09/15 04:40:10;;;;;;;0.10;0.10;;;;;;;11.27;100.00;99441.78;5112618;28;20198;-54
2023/09/15 04:42:59;;;;;;;0.10;0.10;;;;;;;11.43;100.00;99440.75;5105066;28;20690;-55
2023/09/15 04:45:48;;;;;;;0.10;0.10;;;;;;;11.59;100.00;99431.84;5091043;28;20199;-54
2023/09/15 04:48:35;;;;;;;0.10;0.10;;;;;;;11.90;100.00;99436.91;5092131;28;20317;-54
2023/09/15 04:51:24;;;;;;;0.10;0.10;;;;;;;11.79;100.00;99434.06;5092399;28;20206;-54
2023/09/15 04:54:12;;;;;;;0.10;0.10;;;;;;;11.83;100.00;99432.06;5092087;28;20202;-54
2023/09/15 04:56:58;;;;;;;0.10;0.10;;;;;;;11.47;100.00;99426.34;5091999;28;20198;-54
2023/09/15 04:59:46;;;;;;;0.10;0.10;;;;;;;11.49;100.00;99430.72;5092129;28;20678;-54
2023/09/15 05:02:34;;;;;;;0.10;0.10;;;;;;;11.35;100.00;99428.91;5090857;28;20191;-54
2023/09/15 05:05:21;;;;;;;0.10;0.10;;;;;;;11.26;100.00;99440.94;5092822;28;20572;-54
2023/09/15 05:08:09;;;;;;;0.10;0.10;;;;;;;11.63;100.00;99439.47;5091951;28;20249;-57
2023/09/15 05:10:56;;;;;;;0.10;0.10;;;;;;;11.20;100.00;99443.16;5093037;28;20191;-54
2023/09/15 05:13:43;;;;;;;0.10;0.10;;;;;;;11.59;100.00;99447.75;5091538;28;20256;-54
2023/09/15 05:16:31;;;;;;;0.10;0.10;;;;;;;11.51;100.00;99455.34;5090807;28;20199;-54
2023/09/15 05:19:18;;;;;;;0.10;0.10;;;;;;;11.60;100.00;99452.97;5091875;28;20194;-55
2023/09/15 05:22:05;;;;;;;0.10;0.10;;;;;;;11.59;100.00;99445.94;5092220;28;20335;-55
2023/09/15 05:24:55;;;;;;;0.10;0.10;;;;;;;11.39;100.00;99449.00;5092826;28;20310;-54
2023/09/15 05:27:42;;;;;;;0.10;0.10;;;;;;;11.67;100.00;99442.78;5092016;28;20194;-55
2023/09/15 05:30:31;;;;;;;0.03;0.03;;;;;;;11.65;100.00;99440.22;5091768;28;20195;-55
2023/09/15 05:33:20;;;;;;;0.10;0.10;;;;;;;11.73;100.00;99440.59;5091648;28;20332;-55
2023/09/15 05:36:08;;;;;;;0.10;0.10;;;;;;;11.75;100.00;99436.03;5092571;28;20329;-55
2023/09/15 05:38:54;;;;;;;0.10;0.10;;;;;;;12.01;100.00;99445.00;5092654;28;20317;-54
2023/09/15 05:41:43;;;;;;;0.10;0.10;;;;;;;12.23;100.00;99440.94;5092788;28;20195;-54
2023/09/15 05:44:30;;;;;;;0.10;0.10;;;;;;;11.95;100.00;99442.75;5092750;28;20189;-54
2023/09/15 05:47:17;;;;;;;0.10;0.10;;;;;;;11.93;100.00;99449.09;5091201;28;20191;-54
2023/09/15 05:50:04;;;;;;;0.10;0.10;;;;;;;12.09;100.00;99448.97;5093283;28;20191;-54
2023/09/15 05:52:51;;;;;;;0.10;0.10;;;;;;;12.13;100.00;99445.16;5096490;28;20340;-54
2023/09/15 05:55:38;;;;;;;0.10;0.10;;;;;;;11.81;100.00;99444.59;5096457;28;20312;-54
2023/09/15 05:58:26;;;;;;;0.10;0.10;;;;;;;11.95;100.00;99450.69;5095915;28;20206;-54
2023/09/15 06:01:13;;;;;;;0.10;0.10;;;;;;;11.99;100.00;99454.03;5095042;28;20233;-54
2023/09/15 06:04:00;;;;;;;0.10;0.10;;;;;;;12.19;100.00;99448.25;5096488;28;20195;-54
2023/09/15 06:06:47;;;;;;;0.10;0.10;;;;;;;12.37;100.00;99445.34;5096381;28;20203;-54
2023/09/15 06:09:34;;;;;;;0.10;0.10;;;;;;;12.33;100.00;99450.00;5096287;28;20337;-54
2023/09/15 06:12:21;;;;;;;0.10;0.10;;;;;;;12.01;100.00;99445.00;5096080;28;20195;-54
2023/09/15 06:15:10;;;;;;;0.10;0.10;;;;;;;12.26;100.00;99446.91;5096170;28;20198;-54
2023/09/15 06:17:57;;;;;;;0.10;0.10;;;;;;;12.50;100.00;99449.72;5094798;28;20191;-54
2023/09/15 06:20:44;;;;;;;0.10;0.10;;;;;;;12.48;100.00;99448.97;5096269;28;20205;-54
2023/09/15 06:23:31;;;;;;;0.10;0.10;;;;;;;12.43;100.00;99445.78;5095664;28;20276;-55
2023/09/15 06:26:18;;;;;;;0.10;0.10;;;;;;;12.48;100.00;99453.44;5095903;28;20191;-55
2023/09/15 06:29:05;;;;;;;0.10;0.10;;;;;;;12.55;100.00;99446.78;5095906;28;20202;-54
2023/09/15 06:31:54;;;;;;;0.10;0.10;;;;;;;12.43;100.00;99445.78;5094540;28;20274;-55
2023/09/15 06:34:41;;;;;;;0.10;0.10;;;;;;;12.71;100.00;99450.06;5095449;28;20342;-55
2023/09/15 06:37:28;;;;;;;0.10;0.10;;;;;;;12.84;100.00;99455.41;5095740;28;20190;-55
2023/09/15 06:40:15;;;;;;;0.10;0.10;;;;;;;13.08;100.00;99453.72;5095585;28;20261;-54
2023/09/15 06:43:04;;;;;;;0.10;0.10;;;;;;;13.09;100.00;99449.25;5095576;28;20194;-55
2023/09/15 06:45:51;;;;;;;0.10;0.10;;;;;;;13.22;100.00;99463.44;5094215;28;20215;-55
2023/09/15 06:48:39;;;;;;;0.10;0.10;;;;;;;13.29;100.00;99461.19;5095430;28;20199;-55
2023/09/15 06:51:27;;;;;;;0.10;0.10;;;;;;;13.36;100.00;99451.81;5095358;28;20186;-55
2023/09/15 06:54:14;;;;;;;0.10;0.10;;;;;;;13.60;100.00;99459.84;5095147;28;20214;-55
2023/09/15 06:57:02;;;;;;;0.10;0.10;;;;;;;13.60;100.00;99454.53;5095358;28;20202;-55
2023/09/15 06:59:49;;;;;;;0.10;0.10;;;;;;;13.69;100.00;99449.41;5095181;28;20194;-55
2023/09/15 07:02:36;;;;;;;0.10;0.10;;;;;;;14.01;100.00;99441.75;5093562;28;20210;-55
2023/09/15 07:05:25;;;;;;;0.10;0.10;;;;;;;14.02;100.00;99442.59;5095149;28;20267;-54
2023/09/15 07:08:11;;;;;;;0.10;0.10;;;;;;;14.16;100.00;99449.56;5094999;28;20202;-55
2023/09/15 07:10:58;;;;;;;0.10;0.10;;;;;;;14.75;100.00;99447.75;5095061;28;20456;-54
2023/09/15 07:13:45;;;;;;;0.10;0.10;;;;;;;14.92;100.00;99446.44;5094833;28;20219;-54
2023/09/15 07:16:36;;;;;;;0.10;0.10;;;;;;;15.18;100.00;99429.25;5093443;28;20228;-55
2023/09/15 07:19:24;;;;;;;0.10;0.10;;;;;;;14.89;100.00;99442.22;5094957;28;20199;-55
2023/09/15 07:22:12;;;;;;;0.20;0.20;;;;;;;15.22;100.00;99437.03;5094712;28;20297;-55
2023/09/15 07:24:59;;;;;;;0.10;0.10;;;;;;;15.36;100.00;99440.31;5094769;28;20198;-54
2023/09/15 07:27:46;;;;;;;0.10;0.10;;;;;;;15.55;100.00;99423.69;5094762;28;20199;-55
2023/09/15 07:30:33;;;;;;;0.10;0.10;;;;;;;15.42;100.00;99422.94;5094603;28;20195;-55
2023/09/15 07:33:20;;;;;;;0.10;0.10;;;;;;;15.17;100.00;99432.91;5094400;28;20211;-55
2023/09/15 07:36:07;;;;;;;0.10;0.10;;;;;;;15.65;100.00;99423.81;5094601;28;20183;-55
2023/09/15 07:38:55;;;;;;;0.10;0.10;;;;;;;15.78;100.00;99426.34;5094564;28;20198;-55
2023/09/15 07:41:42;;;;;;;0.10;0.10;;;;;;;15.90;100.00;99430.69;5094338;28;20390;-55
2023/09/15 07:44:29;;;;;;;0.10;0.10;;;;;;;15.94;100.00;99432.13;5094416;28;20309;-55
2023/09/15 07:47:16;;;;;;;0.10;0.10;;;;;;;16.02;100.00;99425.19;5093022;28;20752;-55
2023/09/15 07:50:04;;;;;;;0.10;0.10;;;;;;;16.38;100.00;99425.78;5094264;28;20793;-55
2023/09/15 07:52:51;;;;;;;0.10;0.10;;;;;;;16.72;100.00;99431.00;5094308;28;20313;-55
2023/09/15 07:55:39;;;;;;;0.10;0.10;;;;;;;17.03;100.00;99421.19;5091763;28;20209;-55
2023/09/15 07:58:26;;;;;;;0.10;0.10;;;;;;;17.28;100.00;99419.91;5093764;28;20199;-55
2023/09/15 08:01:14;;;;;;;0.10;0.10;;;;;;;17.24;100.00;99405.94;5091838;28;20198;-55
2023/09/15 08:04:01;;;;;;;0.10;0.10;;;;;;;17.48;100.00;99410.97;5095000;28;20787;-55
2023/09/15 08:06:49;;;;;;;0.10;0.10;;;;;;;17.30;100.00;99404.56;5113340;28;20194;-55
2023/09/15 08:09:36;;;;;;;0.10;0.10;;;;;;;17.67;100.00;99402.16;5113502;28;20196;-55
2023/09/15 08:12:25;;;;;;;0.10;0.10;;;;;;;17.91;100.00;99404.47;5112551;28;20190;-55
2023/09/15 08:15:14;;;;;;;0.10;0.10;;;;;;;17.87;100.00;99401.22;5113058;28;20222;-55
2023/09/15 08:18:01;;;;;;;0.10;0.10;;;;;;;18.16;100.00;99403.09;5112372;28;20198;-55
2023/09/15 08:20:48;;;;;;;0.10;0.10;;;;;;;18.05;100.00;99400.53;5113138;28;20206;-55
2023/09/15 08:23:35;;;;;;;0.10;0.10;;;;;;;18.46;100.00;99399.41;5112522;28;20225;-55
2023/09/15 08:26:22;;;;;;;0.10;0.10;;;;;;;18.72;100.00;99389.81;5112944;28;20190;-55
2023/09/15 08:29:11;;;;;;;0.10;0.10;;;;;;;19.01;100.00;99394.25;5113273;28;20256;-55
2023/09/15 08:31:58;;;;;;;0.10;0.10;;;;;;;19.02;100.00;99388.75;5111785;28;20198;-55
2023/09/15 08:34:45;;;;;;;0.10;0.10;;;;;;;19.09;100.00;99392.53;5112403;28;20236;-55
2023/09/15 08:37:32;;;;;;;0.10;0.10;;;;;;;19.31;100.00;99388.63;5112399;28;20205;-55
2023/09/15 08:40:19;;;;;;;0.10;0.10;;;;;;;19.39;100.00;99386.03;5112823;28;20336;-55
2023/09/15 08:43:06;;;;;;;0.10;0.10;;;;;;;19.47;100.00;99379.06;5112775;28;20194;-55
2023/09/15 08:45:56;;;;;;;0.10;0.10;;;;;;;19.79;100.00;99384.88;5111716;28;20193;-55
2023/09/15 08:48:49;;;;;;;0.10;0.10;;;;;;;19.78;100.00;99390.38;5112262;28;20194;-55
2023/09/15 08:51:37;;;;;;;0.10;0.10;;;;;;;20.23;100.00;99385.81;5112592;28;20187;-55
2023/09/15 08:54:24;;;;;;;0.10;0.10;;;;;;;20.23;100.00;99388.50;5112180;28;20283;-55
2023/09/15 08:57:12;;;;;;;0.10;0.10;;;;;;;20.55;100.00;99387.97;5110250;28;20236;-55
2023/09/15 09:00:00;;;;;;;0.10;0.10;;;;;;;20.78;100.00;99387.47;5112557;28;20201;-55
2023/09/15 09:02:48;;;;;;;0.10;0.10;;;;;;;21.09;100.00;99385.13;5111287;28;20186;-55
2023/09/15 09:05:37;;;;;;;0.10;0.10;;;;;;;21.09;100.00;99388.69;5112781;28;20198;-55
2023/09/15 09:08:24;;;;;;;0.10;0.10;;;;;;;20.74;100.00;99392.31;5112384;28;20260;-55
2023/09/15 09:11:13;;;;;;;0.10;0.10;;;;;;;21.33;100.00;99384.47;5112214;28;20312;-56
2023/09/15 09:13:59;;;;;;;0.10;0.10;;;;;;;21.62;100.00;99384.94;5112416;28;20297;-55
2023/09/15 09:16:47;;;;;;;0.10;0.10;;;;;;;21.91;100.00;99375.56;5110981;28;20186;-56
2023/09/15 09:19:41;;;;;;;0.10;0.10;;;;;;;21.91;100.00;99375.56;5112190;28;20194;-56
2023/09/15 09:22:29;;;;;;;0.10;0.10;;;;;;;22.38;100.00;99378.50;5111882;28;20233;-56
2023/09/15 09:25:28;;;;;;;0.10;0.10;;;;;;;22.30;100.00;99373.13;5114747;28;20197;-56
2023/09/15 09:28:17;;;;;;;0.10;0.10;;;;;;;22.49;100.00;99364.69;5116532;28;20301;-55
2023/09/15 09:31:06;;;;;;;0.10;0.10;;;;;;;22.38;100.00;99370.41;5114230;28;20307;-56
2023/09/15 09:33:58;;;;;;;0.10;0.10;;;;;;;22.90;100.00;99364.66;5115942;28;20205;-56
2023/09/15 09:36:50;;;;;;;0.10;0.10;;;;;;;23.06;100.00;99367.31;5116263;28;20202;-56
2023/09/15 09:39:39;;;;;;;0.10;0.10;;;;;;;23.24;99.25;99361.69;5116240;28;20228;-55
2023/09/15 09:42:29;;;;;;;0.10;0.10;;;;;;;23.96;94.29;99359.69;5116357;28;20198;-55
2023/09/15 09:45:17;;;;;;;0.10;0.10;;;;;;;23.78;94.85;99359.13;5116343;28;20688;-56
2023/09/15 09:48:05;;;;;;;0.10;0.10;;;;;;;23.72;93.22;99356.28;5115836;28;20202;-56
2023/09/15 09:50:52;;;;;;;0.10;0.10;;;;;;;24.24;92.20;99351.88;5116107;28;20198;-56
2023/09/15 09:53:42;;;;;;;0.10;0.10;;;;;;;24.41;90.69;99351.75;5115517;28;20252;-56
2023/09/15 09:56:32;;;;;;;0.10;0.10;;;;;;;24.19;93.64;99348.00;5115542;28;20267;-56
2023/09/15 09:59:21;;;;;;;0.10;0.10;;;;;;;24.82;86.86;99341.41;5116036;28;20669;-56
2023/09/15 10:02:08;;;;;;;0.10;0.10;;;;;;;25.06;83.32;99332.19;5113167;28;20550;-56
2023/09/15 10:04:55;;;;;;;0.10;0.10;;;;;;;25.12;83.39;99342.28;5116110;28;20300;-56
2023/09/15 10:07:45;;;;;;;0.10;0.10;;;;;;;25.35;78.73;99337.59;5114997;28;20201;-56
2023/09/15 10:10:34;;;;;;;0.00;0.00;;;;;;;26.30;73.23;99338.47;5115373;28;20190;-55
2023/09/15 10:13:22;;;;;;;0.00;0.00;;;;;;;27.56;64.19;99330.16;5115426;28;20190;-56
2023/09/15 10:16:09;;;;;;;0.10;0.10;;;;;;;30.05;51.76;99324.94;5113836;28;20312;-56
2023/09/15 10:18:57;;;;;;;0.00;0.00;;;;;;;31.36;48.62;99324.84;5115686;28;20194;-56
2023/09/15 10:21:47;;;;;;;0.00;0.00;;;;;;;32.88;44.27;99330.03;5115388;28;20273;-56
2023/09/15 10:24:34;;;;;;;0.00;0.00;;;;;;;32.95;43.35;99322.53;5114065;28;20198;-56
2023/09/15 10:27:22;;;;;;;0.00;0.00;;;;;;;33.68;40.54;99319.16;5115430;28;20244;-56
2023/09/15 10:30:11;;;;;;;0.00;0.00;;;;;;;35.33;37.91;99317.03;5114455;28;20193;-56
2023/09/15 10:33:00;;;;;;;0.00;0.00;;;;;;;36.15;37.03;99318.81;5113043;28;20189;-56
2023/09/15 10:35:48;;;;;;;0.00;0.00;;;;;;;36.81;35.31;99327.69;5113395;28;20754;-57
2023/09/15 10:38:35;;;;;;;0.00;0.00;;;;;;;35.63;36.04;99324.84;5115277;28;20214;-57
2023/09/15 10:41:29;;;;;;;0.00;0.00;;;;;;;36.22;34.54;99319.44;5115056;28;20193;-57
2023/09/15 10:44:28;;;;;;;0.00;0.00;;;;;;;36.20;35.26;99316.13;5115265;28;20248;-57
2023/09/15 10:47:16;;;;;;;0.00;0.00;;;;;;;36.70;34.40;99312.13;5113586;28;20197;-57
2023/09/15 10:50:05;;;;;;;0.00;0.00;;;;;;;35.68;33.96;99311.13;5115870;28;20194;-57
2023/09/15 10:52:51;;;;;;;0.00;0.00;;;;;;;37.12;32.47;99311.31;5115846;28;20210;-57
2023/09/15 10:55:40;;;;;;;0.00;0.00;;;;;;;36.08;33.09;99298.88;5115625;28;20214;-57
2023/09/15 10:58:28;;;;;;;0.00;0.00;;;;;;;35.98;32.48;99298.78;5115768;28;20210;-57
2023/09/15 11:01:18;;;;;;;0.00;0.00;;;;;;;36.72;33.09;99301.66;5114264;28;20320;-57
2023/09/15 11:04:06;;;;;;;0.00;0.00;;;;;;;36.83;32.68;99302.56;5115446;28;20190;-56
2023/09/15 11:06:54;;;;;;;0.00;0.00;;;;;;;37.47;31.67;99289.41;5115526;28;20194;-56
2023/09/15 11:09:42;;;;;;;0.00;0.00;;;;;;;38.41;30.18;99278.25;5115548;28;20260;-57
2023/09/15 11:12:29;;;;;;;0.00;0.00;;;;;;;38.86;29.88;99272.66;5115268;28;20305;-57
2023/09/15 11:15:15;;;;;;;0.00;0.00;;;;;;;38.18;30.61;99271.31;5115256;28;20221;-57
2023/09/15 11:18:06;;;;;;;0.00;0.00;;;;;;;38.82;29.82;99266.03;5112678;28;20206;-57
2023/09/15 11:20:53;;;;;;;0.00;0.00;;;;;;;38.11;30.84;99268.81;5114341;28;20198;-57
2023/09/15 11:23:46;;;;;;;0.00;0.00;;;;;;;38.14;30.66;99262.72;5113995;28;20217;-57
2023/09/15 11:26:33;;;;;;;0.00;0.00;;;;;;;38.68;29.81;99248.34;5114193;28;20210;-57
2023/09/15 11:29:27;;;;;;;0.00;0.00;;;;;;;37.11;30.69;99259.91;5113895;28;20206;-56
2023/09/15 11:32:13;;;;;;;0.00;0.00;;;;;;;39.14;29.50;99262.91;5112635;28;20237;-57
2023/09/15 11:35:04;;;;;;;0.00;0.00;;;;;;;38.18;30.27;99263.00;5113134;28;20193;-57
2023/09/15 11:37:52;;;;;;;0.00;0.00;;;;;;;37.93;30.01;99258.28;5113742;28;20210;-57
2023/09/15 11:40:46;;;;;;;0.00;0.00;;;;;;;38.91;29.13;99249.69;5113618;28;20197;-57
2023/09/15 11:43:35;;;;;;;0.00;0.00;;;;;;;38.04;30.54;99249.72;5114242;28;20214;-57
2023/09/15 11:46:21;;;;;;;0.00;0.00;;;;;;;37.69;30.87;99256.00;5112275;28;20210;-57
2023/09/15 11:49:09;;;;;;;0.00;0.00;;;;;;;36.47;32.60;99249.84;5112682;28;20201;-56
2023/09/15 11:51:58;;;;;;;0.00;0.00;;;;;;;38.72;29.74;99241.16;5113789;28;20190;-57
2023/09/15 11:54:45;;;;;;;0.00;0.00;;;;;;;38.69;29.19;99238.09;5113279;28;20189;-57
2023/09/15 11:57:33;;;;;;;0.00;0.00;;;;;;;38.53;29.70;99235.34;5113818;28;20259;-57
2023/09/15 12:00:21;;;;;;;0.00;0.00;;;;;;;37.48;30.34;99234.94;5113199;28;20197;-57
2023/09/15 12:03:08;;;;;;;0.00;0.00;;;;;;;40.31;28.66;99234.47;5113269;28;20198;-57
2023/09/15 12:05:55;;;;;;;0.00;0.00;;;;;;;39.39;28.50;99234.25;5113122;28;20198;-56
2023/09/15 12:08:43;;;;;;;0.00;0.00;;;;;;;37.49;29.78;99231.06;5112726;28;20194;-57
2023/09/15 12:11:30;;;;;;;0.00;0.00;;;;;;;36.30;32.29;99232.59;5113490;28;20609;-57
2023/09/15 12:14:17;;;;;;;0.00;0.00;;;;;;;37.81;30.19;99219.81;5113190;28;20213;-57
2023/09/15 12:17:05;;;;;;;0.00;0.00;;;;;;;39.46;28.30;99228.38;5111231;28;20267;-57
2023/09/15 12:19:59;;;;;;;0.00;0.00;;;;;;;38.59;30.30;99214.81;5113483;28;20190;-57
2023/09/15 12:22:45;;;;;;;0.00;0.00;;;;;;;39.30;28.48;99210.19;5112900;28;20233;-57
2023/09/15 12:25:34;;;;;;;0.00;0.00;;;;;;;38.19;29.74;99212.91;5112634;28;20194;-56
2023/09/15 12:28:22;;;;;;;0.00;0.00;;;;;;;40.25;28.22;99210.66;5113169;28;20198;-57
2023/09/15 12:31:15;;;;;;;0.00;0.00;;;;;;;40.57;27.74;99214.81;5111356;28;20203;-57
2023/09/15 12:34:05;;;;;;;0.00;0.00;;;;;;;42.21;25.87;99203.97;5111947;28;20206;-57
2023/09/15 12:36:53;;;;;;;0.00;0.00;;;;;;;41.64;26.08;99194.00;5112657;28;20214;-57
2023/09/15 12:39:40;;;;;;;0.00;0.00;;;;;;;41.00;26.37;99198.22;5112542;28;20308;-57
2023/09/15 12:42:28;;;;;;;0.00;0.00;;;;;;;42.45;25.06;99194.63;5112781;28;20204;-57
2023/09/15 12:45:16;;;;;;;0.00;0.00;;;;;;;42.20;25.29;99191.19;5112864;28;20201;-57
2023/09/15 12:48:03;;;;;;;0.00;0.00;;;;;;;40.90;26.07;99191.66;5112790;28;20189;-58
2023/09/15 12:50:50;;;;;;;0.00;0.00;;;;;;;42.61;24.72;99186.84;5112007;28;20202;-57
2023/09/15 12:53:37;;;;;;;0.00;0.00;;;;;;;39.88;26.22;99188.19;5110747;28;20201;-57
2023/09/15 12:56:23;;;;;;;0.00;0.00;;;;;;;37.83;28.30;99178.88;5112324;28;20214;-57
2023/09/15 12:59:13;;;;;;;0.00;0.00;;;;;;;40.49;25.42;99182.94;5112661;28;20683;-57
2023/09/15 13:01:59;;;;;;;0.00;0.00;;;;;;;42.28;24.50;99170.16;5112241;28;20324;-57
2023/09/15 13:04:46;;;;;;;0.00;0.00;;;;;;;43.11;23.99;99168.25;5113440;28;20197;-57